createdAt,value
2022-09-10T00:02:06.537Z,17.55
2022-09-10T00:04:36.563Z,17.75
2022-09-10T00:07:06.462Z,18.07
2022-09-10T00:09:36.166Z,17.96
2022-09-10T00:12:09.312Z,18.33
2022-09-10T00:14:40.214Z,18.60
2022-09-10T00:17:10.766Z,18.59
2022-09-10T00:19:44.620Z,18.72
2022-09-10T00:22:17.452Z,18.70
2022-09-10T00:24:47.777Z,18.20
2022-09-10T00:27:17.619Z,18.32
2022-09-10T00:29:48.287Z,18.18
2022-09-10T00:32:18.287Z,18.45
2022-09-10T00:34:48.146Z,18.18
2022-09-10T00:37:20.209Z,18.07
2022-09-10T00:39:50.591Z,18.57
2022-09-10T00:42:20.574Z,18.98
2022-09-10T00:45:00.061Z,18.98
2022-09-10T00:47:40.598Z,18.84
2022-09-10T00:50:24.412Z,19.16
2022-09-10T00:52:57.408Z,18.82
2022-09-10T00:55:28.117Z,18.86
2022-09-10T00:58:01.438Z,18.75
2022-09-10T01:00:32.971Z,18.64
2022-09-10T01:03:04.766Z,18.89
2022-09-10T01:05:35.502Z,19.15
2022-09-10T01:08:07.650Z,18.94
2022-09-10T01:11:05.426Z,19.00
2022-09-10T01:13:59.987Z,19.14
2022-09-10T01:16:52.041Z,18.91
2022-09-10T01:19:49.591Z,18.55
2022-09-10T01:22:43.379Z,18.01
2022-09-10T01:25:16.184Z,18.22
2022-09-10T01:27:52.595Z,18.12
2022-09-10T01:30:24.319Z,18.31
2022-09-10T01:33:27.348Z,18.03
2022-09-10T01:36:10.748Z,18.19
2022-09-10T01:38:45.120Z,18.00
2022-09-10T01:41:16.348Z,17.84
2022-09-10T01:43:46.666Z,17.85
2022-09-10T01:46:40.795Z,17.17
2022-09-10T01:50:02.583Z,17.75
2022-09-10T01:52:44.908Z,17.53
2022-09-10T01:55:31.819Z,17.54
2022-09-10T01:58:32.094Z,17.60
2022-09-10T02:01:57.125Z,17.76
2022-09-10T02:04:29.670Z,17.31
2022-09-10T02:07:01.047Z,17.28
2022-09-10T02:09:33.439Z,17.28
2022-09-10T02:12:04.219Z,17.26
2022-09-10T02:15:13.934Z,17.39
2022-09-10T02:17:55.263Z,17.25
2022-09-10T02:20:26.184Z,16.86
2022-09-10T02:22:59.672Z,16.88
2022-09-10T02:25:35.032Z,16.42
2022-09-10T02:28:07.338Z,16.39
2022-09-10T02:30:37.915Z,16.41
2022-09-10T02:33:08.238Z,15.94
2022-09-10T02:35:38.706Z,16.27
2022-09-10T02:38:09.682Z,16.36
2022-09-10T02:40:40.892Z,16.04
2022-09-10T02:43:11.132Z,16.30
2022-09-10T02:45:42.452Z,16.22
2022-09-10T02:48:12.046Z,16.35
2022-09-10T02:50:47.428Z,16.02
2022-09-10T02:53:17.614Z,16.22
2022-09-10T02:55:50.527Z,16.39
2022-09-10T02:58:20.681Z,16.55
2022-09-10T03:00:51.191Z,16.15
2022-09-10T03:03:21.319Z,16.63
2022-09-10T03:05:51.365Z,16.77
2022-09-10T03:08:22.500Z,16.84
2022-09-10T03:10:53.093Z,16.87
2022-09-10T03:13:23.323Z,17.02
2022-09-10T03:15:54.031Z,17.10
2022-09-10T03:18:28.948Z,17.30
2022-09-10T03:21:11.166Z,16.17
2022-09-10T03:23:41.305Z,16.48
2022-09-10T03:26:12.708Z,16.32
2022-09-10T03:28:43.365Z,15.84
2022-09-10T03:31:16.551Z,16.19
2022-09-10T03:33:50.372Z,16.32
2022-09-10T03:36:23.867Z,16.39
2022-09-10T03:38:54.092Z,16.40
2022-09-10T03:41:24.088Z,15.83
2022-09-10T03:43:55.985Z,16.09
2022-09-10T03:46:28.856Z,16.15
2022-09-10T03:49:03.467Z,15.79
2022-09-10T03:51:38.375Z,15.49
2022-09-10T03:54:08.475Z,15.23
2022-09-10T03:56:42.750Z,15.35
2022-09-10T03:59:14.511Z,15.56
2022-09-10T04:01:45.466Z,15.57
2022-09-10T04:04:16.115Z,15.92
2022-09-10T04:06:47.211Z,15.87
2022-09-10T04:09:18.724Z,15.66
2022-09-10T04:11:48.753Z,16.11
2022-09-10T04:14:18.499Z,16.11
2022-09-10T04:16:49.837Z,16.27
2022-09-10T04:19:21.301Z,16.15
2022-09-10T04:21:54.110Z,16.53
2022-09-10T04:24:26.141Z,16.63
2022-09-10T04:26:56.251Z,16.99
2022-09-10T04:29:26.395Z,17.01
2022-09-10T04:31:56.512Z,17.23
2022-09-10T04:34:31.464Z,17.27
2022-09-10T04:37:02.507Z,17.34
2022-09-10T04:39:34.474Z,17.28
2022-09-10T04:42:06.034Z,17.42
2022-09-10T04:44:36.908Z,17.24
2022-09-10T04:47:07.825Z,17.17
2022-09-10T04:49:38.395Z,17.41
2022-09-10T04:52:08.987Z,17.44
2022-09-10T04:54:39.950Z,16.94
2022-09-10T04:57:10.088Z,16.98
2022-09-10T04:59:40.606Z,16.86
2022-09-10T05:02:10.951Z,16.69
2022-09-10T05:04:41.815Z,16.64
2022-09-10T05:07:12.213Z,16.83
2022-09-10T05:09:42.646Z,16.81
2022-09-10T05:12:17.766Z,16.59
2022-09-10T05:14:48.722Z,15.97
2022-09-10T05:17:18.844Z,15.83
2022-09-10T05:19:49.562Z,15.58
2022-09-10T05:22:22.891Z,15.71
2022-09-10T05:24:53.447Z,16.18
2022-09-10T05:27:23.412Z,16.25
2022-09-10T05:29:55.022Z,16.21
2022-09-10T05:32:28.289Z,16.43
2022-09-10T05:34:59.815Z,16.39
2022-09-10T05:37:29.906Z,16.47
2022-09-10T05:40:01.092Z,16.56
2022-09-10T05:42:32.890Z,16.64
2022-09-10T05:45:03.444Z,16.22
2022-09-10T05:47:33.946Z,15.75
2022-09-10T05:50:05.544Z,15.08
2022-09-10T05:52:36.030Z,14.64
2022-09-10T05:55:09.363Z,14.38
2022-09-10T05:57:41.362Z,14.82
2022-09-10T06:00:17.088Z,14.82
2022-09-10T06:03:02.925Z,14.42
2022-09-10T06:05:42.259Z,14.51
2022-09-10T06:08:17.187Z,14.27
2022-09-10T06:10:58.109Z,14.32
2022-09-10T06:13:30.198Z,14.04
2022-09-10T06:16:01.955Z,14.48
2022-09-10T06:18:33.115Z,13.92
2022-09-10T06:21:16.225Z,13.69
2022-09-10T06:23:48.775Z,13.60
2022-09-10T06:26:20.083Z,14.16
2022-09-10T06:28:51.900Z,14.45
2022-09-10T06:31:24.311Z,14.75
2022-09-10T06:33:56.646Z,14.68
2022-09-10T06:36:30.752Z,14.40
2022-09-10T06:39:04.423Z,14.09
2022-09-10T06:41:47.901Z,14.30
2022-09-10T06:44:37.833Z,13.95
2022-09-10T06:50:12.937Z,14.74
2022-09-10T06:52:46.314Z,14.92
2022-09-10T06:55:17.211Z,14.94
2022-09-10T06:57:48.959Z,14.74
2022-09-10T07:00:19.992Z,14.80
2022-09-10T07:02:54.045Z,14.72
2022-09-10T07:05:25.462Z,14.62
2022-09-10T07:07:56.507Z,14.53
2022-09-10T07:10:28.791Z,14.44
2022-09-10T07:12:59.228Z,14.40
2022-09-10T07:15:29.997Z,14.31
2022-09-10T07:18:01.114Z,14.14
2022-09-10T07:20:31.543Z,14.25
2022-09-10T07:23:02.142Z,14.36
2022-09-10T07:25:35.307Z,14.54
2022-09-10T07:28:14.235Z,14.46
2022-09-10T07:30:48.538Z,14.31
2022-09-10T07:33:19.434Z,14.21
2022-09-10T07:35:49.572Z,14.21
2022-09-10T07:38:21.715Z,14.17
2022-09-10T07:40:56.766Z,13.88
2022-09-10T07:43:28.252Z,13.84
2022-09-10T07:46:04.004Z,13.79
2022-09-10T07:48:35.493Z,13.89
2022-09-10T07:51:08.490Z,13.97
2022-09-10T07:53:47.534Z,13.81
2022-09-10T07:56:21.670Z,14.01
2022-09-10T07:58:54.929Z,14.16
2022-09-10T08:01:25.526Z,14.11
2022-09-10T08:04:01.937Z,14.10
2022-09-10T08:06:33.395Z,13.40
2022-09-10T08:09:08.418Z,13.48
2022-09-10T08:11:43.536Z,13.31
2022-09-10T08:14:17.608Z,13.33
2022-09-10T08:16:53.749Z,13.74
2022-09-10T08:19:24.358Z,14.01
2022-09-10T08:21:57.867Z,13.90
2022-09-10T08:24:33.918Z,14.05
2022-09-10T08:27:05.056Z,14.23
2022-09-10T08:29:36.098Z,14.10
2022-09-10T08:32:07.332Z,14.25
2022-09-10T08:34:37.384Z,14.42
2022-09-10T08:37:11.102Z,14.51
2022-09-10T08:39:41.952Z,14.46
2022-09-10T08:42:27.760Z,14.57
2022-09-10T08:45:13.496Z,14.76
2022-09-10T08:47:57.266Z,14.72
2022-09-10T08:50:51.519Z,14.59
2022-09-10T08:54:01.110Z,14.60
2022-09-10T08:56:32.351Z,14.36
2022-09-10T08:59:04.438Z,14.62
2022-09-10T09:01:43.338Z,14.33
2022-09-10T09:04:27.403Z,14.78
2022-09-10T09:07:03.117Z,14.88
2022-09-10T09:09:34.140Z,14.81
2022-09-10T09:12:23.779Z,15.04
2022-09-10T09:15:08.698Z,15.15
2022-09-10T09:18:09.872Z,15.41
2022-09-10T09:20:56.519Z,15.37
2022-09-10T09:23:57.057Z,15.50
2022-09-10T09:26:39.260Z,15.70
2022-09-10T09:29:19.174Z,15.76
2022-09-10T09:31:59.036Z,15.75
2022-09-10T09:34:43.291Z,15.56
2022-09-10T09:37:27.149Z,15.53
2022-09-10T09:40:09.743Z,15.45
2022-09-10T09:43:09.138Z,15.51
2022-09-10T09:45:48.558Z,14.87
2022-09-10T09:48:22.411Z,14.69
2022-09-10T09:50:57.578Z,14.52
2022-09-10T09:53:30.412Z,14.19
2022-09-10T09:56:03.014Z,13.99
2022-09-10T09:58:38.540Z,13.55
2022-09-10T10:01:18.290Z,13.63
2022-09-10T10:03:53.429Z,13.32
2022-09-10T10:06:30.110Z,13.12
2022-09-10T10:09:05.578Z,12.75
2022-09-10T10:11:52.354Z,12.33
2022-09-10T10:14:36.491Z,12.35
2022-09-10T10:17:26.966Z,11.85
2022-09-10T10:20:03.460Z,12.07
2022-09-10T10:22:34.064Z,11.99
2022-09-10T10:25:49.074Z,11.88
2022-09-10T10:28:28.724Z,12.21
2022-09-10T10:31:02.487Z,12.33
2022-09-10T10:33:36.556Z,12.50
2022-09-10T10:36:22.690Z,13.09
2022-09-10T10:39:17.402Z,13.09
2022-09-10T10:41:59.751Z,13.07
2022-09-10T10:44:36.316Z,13.24
2022-09-10T10:47:25.967Z,13.79
2022-09-10T10:50:24.880Z,13.62
2022-09-10T10:53:16.726Z,13.31
2022-09-10T10:55:58.248Z,13.85
2022-09-10T10:59:08.242Z,13.43
2022-09-10T11:01:51.136Z,13.79
2022-09-10T11:04:41.299Z,14.17
2022-09-10T11:07:41.578Z,14.58
2022-09-10T11:10:33.992Z,14.40
2022-09-10T11:13:23.101Z,14.80
2022-09-10T11:16:00.894Z,15.27
2022-09-10T11:18:48.439Z,15.01
2022-09-10T11:21:26.027Z,15.28
2022-09-10T11:23:56.538Z,15.26
2022-09-10T11:26:30.464Z,15.57
2022-09-10T11:29:29.452Z,15.67
2022-09-10T11:32:23.487Z,15.66
2022-09-10T11:35:01.826Z,15.63
2022-09-10T11:37:46.832Z,15.87
2022-09-10T11:40:44.080Z,15.83
2022-09-10T11:43:21.364Z,16.21
2022-09-10T11:45:59.042Z,16.54
2022-09-10T11:48:38.617Z,16.20
2022-09-10T11:51:13.057Z,15.17
2022-09-10T11:53:43.113Z,14.78
2022-09-10T11:56:40.388Z,15.07
2022-09-10T11:59:31.949Z,15.61
2022-09-10T12:02:19.752Z,15.71
2022-09-10T12:04:59.099Z,16.58
2022-09-10T12:07:47.183Z,16.63
2022-09-10T12:10:43.425Z,17.24
2022-09-10T12:13:17.271Z,18.03
2022-09-10T12:15:59.744Z,17.93
2022-09-10T12:18:46.054Z,17.80
2022-09-10T12:21:29.103Z,17.92
2022-09-10T12:24:01.989Z,17.63
2022-09-10T12:26:42.066Z,17.56
2022-09-10T12:29:35.109Z,17.81
2022-09-10T12:32:17.217Z,17.65
2022-09-10T12:34:49.560Z,18.05
2022-09-10T12:37:23.858Z,18.12
2022-09-10T12:40:44.007Z,18.22
2022-09-10T12:43:41.919Z,18.01
2022-09-10T12:46:13.707Z,18.18
2022-09-10T12:49:11.231Z,18.22
2022-09-10T12:51:41.490Z,18.56
2022-09-10T12:54:32.166Z,18.49
2022-09-10T12:57:17.794Z,19.60
2022-09-10T13:00:13.154Z,19.23
2022-09-10T13:02:55.219Z,19.37
2022-09-10T13:05:33.165Z,19.26
2022-09-10T13:08:12.485Z,19.20
2022-09-10T13:10:58.411Z,19.69
2022-09-10T13:13:34.855Z,20.41
2022-09-10T13:16:10.423Z,20.86
2022-09-10T13:18:43.152Z,20.25
2022-09-10T13:21:25.261Z,19.14
2022-09-10T13:23:56.512Z,19.38
2022-09-10T13:26:48.381Z,18.72
2022-09-10T13:29:40.241Z,18.86
2022-09-10T13:32:39.554Z,18.61
2022-09-10T13:35:22.310Z,18.54
2022-09-10T13:38:19.486Z,18.92
2022-09-10T13:41:11.446Z,19.72
2022-09-10T13:44:27.500Z,19.17
2022-09-10T13:47:04.675Z,18.91
2022-09-10T13:50:01.947Z,18.90
2022-09-10T13:52:43.713Z,17.84
2022-09-10T13:55:22.281Z,17.25
2022-09-10T13:57:56.139Z,18.50
2022-09-10T14:00:35.042Z,20.16
2022-09-10T14:03:17.626Z,20.13
2022-09-10T14:06:06.190Z,20.27
2022-09-10T14:08:58.390Z,20.59
2022-09-10T14:11:32.083Z,20.52
2022-09-10T14:14:22.469Z,20.79
2022-09-10T14:17:02.336Z,21.52
2022-09-10T14:19:39.169Z,21.48
2022-09-10T14:22:13.614Z,20.92
2022-09-10T14:24:49.901Z,20.32
2022-09-10T14:27:29.356Z,20.26
2022-09-10T14:30:25.683Z,20.09
2022-09-10T14:32:56.484Z,20.44
2022-09-10T14:35:47.768Z,21.07
2022-09-10T14:38:30.251Z,21.49
2022-09-10T14:41:04.457Z,21.77
2022-09-10T14:43:41.751Z,22.31
2022-09-10T14:46:34.088Z,21.85
2022-09-10T14:49:12.127Z,22.32
2022-09-10T14:51:42.438Z,21.76
2022-09-10T14:54:14.016Z,20.60
2022-09-10T14:56:47.564Z,21.55
2022-09-10T14:59:21.262Z,21.13
2022-09-10T15:01:52.601Z,20.87
2022-09-10T15:04:31.334Z,20.19
2022-09-10T15:07:03.835Z,20.18
2022-09-10T15:09:33.799Z,20.21
2022-09-10T15:12:16.738Z,20.51
2022-09-10T15:14:47.168Z,20.57
2022-09-10T15:17:18.993Z,20.68
2022-09-10T15:19:49.792Z,20.86
2022-09-10T15:22:28.731Z,21.31
2022-09-10T15:25:10.409Z,20.54
2022-09-10T15:27:41.335Z,21.30
2022-09-10T15:30:11.667Z,20.52
2022-09-10T15:32:41.969Z,20.04
2022-09-10T15:35:12.259Z,20.49
2022-09-10T15:37:42.714Z,21.28
2022-09-10T15:40:12.512Z,21.05
2022-09-10T15:42:43.021Z,20.83
2022-09-10T15:46:23.048Z,20.76
2022-09-10T15:48:54.972Z,21.11
2022-09-10T15:51:25.902Z,21.24
2022-09-10T15:54:02.962Z,21.23
2022-09-10T15:56:35.276Z,21.45
2022-09-10T15:59:06.827Z,20.59
2022-09-10T16:01:39.509Z,20.83
2022-09-10T16:04:11.306Z,21.31
2022-09-10T16:06:42.018Z,21.94
2022-09-10T16:09:14.608Z,21.62
2022-09-10T16:11:45.684Z,21.49
2022-09-10T16:14:17.865Z,22.51
2022-09-10T16:16:48.316Z,22.73
2022-09-10T16:19:18.253Z,21.82
2022-09-10T16:21:48.162Z,22.05
2022-09-10T16:24:18.458Z,22.16
2022-09-10T16:26:52.304Z,22.02
2022-09-10T16:29:22.633Z,21.74
2022-09-10T16:31:53.245Z,21.80
2022-09-10T16:34:23.799Z,22.28
2022-09-10T16:36:54.216Z,22.75
2022-09-10T16:39:24.521Z,22.69
2022-09-10T16:41:53.977Z,22.43
2022-09-10T16:44:23.848Z,22.41
2022-09-10T16:46:54.219Z,22.37
2022-09-10T16:49:24.490Z,22.76
2022-09-10T16:51:54.995Z,22.76
2022-09-10T16:54:27.633Z,23.65
2022-09-10T16:56:57.947Z,23.81
2022-09-10T16:59:32.654Z,23.20
2022-09-10T17:02:03.069Z,23.95
2022-09-10T17:04:33.503Z,24.93
2022-09-10T17:07:04.150Z,24.51
2022-09-10T17:09:34.099Z,23.92
2022-09-10T17:12:09.828Z,24.37
2022-09-10T17:14:40.578Z,24.67
2022-09-10T17:17:11.695Z,25.71
2022-09-10T17:19:41.955Z,24.99
2022-09-10T17:22:12.526Z,25.04
2022-09-10T17:24:43.358Z,24.66
2022-09-10T17:27:12.642Z,24.34
2022-09-10T17:29:43.142Z,24.22
2022-09-10T17:32:13.106Z,24.34
2022-09-10T17:34:43.457Z,24.37
2022-09-10T17:37:12.952Z,23.98
2022-09-10T17:39:42.701Z,24.13
2022-09-10T17:42:14.226Z,24.40
2022-09-10T17:44:47.962Z,23.67
2022-09-10T17:47:18.348Z,23.32
2022-09-10T17:49:48.627Z,23.05
2022-09-10T17:52:19.004Z,23.19
2022-09-10T17:54:48.798Z,23.49
2022-09-10T17:57:23.547Z,24.79
2022-09-10T17:59:53.490Z,24.39
2022-09-10T18:02:26.477Z,24.29
2022-09-10T18:04:56.506Z,24.51
2022-09-10T18:07:27.105Z,24.19
2022-09-10T18:09:57.092Z,24.24
2022-09-10T18:12:27.402Z,24.66
2022-09-10T18:14:57.201Z,24.47
2022-09-10T18:17:28.198Z,24.40
2022-09-10T18:19:59.262Z,23.27
2022-09-10T18:22:29.740Z,23.39
2022-09-10T18:24:59.644Z,23.00
2022-09-10T18:27:29.979Z,23.59
2022-09-10T18:29:59.403Z,22.90
2022-09-10T18:32:29.306Z,22.49
2022-09-10T18:34:59.606Z,22.94
2022-09-10T18:37:31.097Z,23.54
2022-09-10T18:40:03.195Z,24.22
2022-09-10T18:42:34.081Z,23.44
2022-09-10T18:45:05.992Z,23.40
2022-09-10T18:47:44.690Z,23.70
2022-09-10T18:50:17.681Z,24.68
2022-09-10T18:52:47.659Z,24.48
2022-09-10T18:55:18.047Z,23.72
2022-09-10T18:57:48.371Z,23.70
2022-09-10T19:00:18.772Z,24.11
2022-09-10T19:02:48.476Z,22.91
2022-09-10T19:05:18.867Z,22.51
2022-09-10T19:07:50.251Z,23.29
2022-09-10T19:10:20.778Z,24.71
2022-09-10T19:12:53.746Z,24.53
2022-09-10T19:15:24.090Z,23.66
2022-09-10T19:17:53.893Z,23.77
2022-09-10T19:20:27.605Z,24.31
2022-09-10T19:22:57.540Z,23.73
2022-09-10T19:25:27.871Z,23.84
2022-09-10T19:27:58.594Z,24.14
2022-09-10T19:30:31.517Z,25.27
2022-09-10T19:33:03.759Z,24.81
2022-09-10T19:35:37.399Z,24.35
2022-09-10T19:38:21.273Z,23.85
2022-09-10T19:41:18.190Z,23.73
2022-09-10T19:43:50.508Z,23.50
2022-09-10T19:46:23.098Z,22.81
2022-09-10T19:48:56.352Z,22.81
2022-09-10T19:51:29.738Z,23.29
2022-09-10T19:54:01.544Z,22.98
2022-09-10T19:56:35.322Z,22.98
2022-09-10T19:59:09.663Z,22.59
2022-09-10T20:01:43.202Z,22.54
2022-09-10T20:04:15.025Z,22.76
2022-09-10T20:06:47.028Z,22.99
2022-09-10T20:09:17.104Z,22.40
2022-09-10T20:11:50.823Z,22.06
2022-09-10T20:14:21.278Z,22.69
2022-09-10T20:16:52.348Z,21.76
2022-09-10T20:19:23.153Z,22.10
2022-09-10T20:21:53.691Z,22.23
2022-09-10T20:24:24.923Z,21.66
2022-09-10T20:26:55.569Z,21.06
2022-09-10T20:29:26.531Z,21.71
2022-09-10T20:31:57.062Z,21.56
2022-09-10T20:34:26.611Z,21.20
2022-09-10T20:36:56.899Z,21.03
2022-09-10T20:39:27.019Z,21.10
2022-09-10T20:41:57.379Z,20.98
2022-09-10T20:44:27.255Z,20.69
2022-09-10T20:46:57.606Z,20.24
2022-09-10T20:49:27.557Z,20.10
2022-09-10T20:51:57.894Z,19.18
2022-09-10T20:54:27.872Z,19.45
2022-09-10T20:56:58.375Z,19.28
2022-09-10T20:59:28.907Z,18.88
2022-09-10T21:01:59.330Z,18.82
2022-09-10T21:04:29.183Z,18.54
2022-09-10T21:06:59.494Z,18.72
2022-09-10T21:09:29.403Z,18.56
2022-09-10T21:12:00.179Z,18.71
2022-09-10T21:14:30.138Z,18.67
2022-09-10T21:17:00.376Z,18.77
2022-09-10T21:19:30.110Z,18.68
2022-09-10T21:22:00.081Z,18.51
2022-09-10T21:24:29.931Z,18.43
2022-09-10T21:27:00.534Z,18.44
2022-09-10T21:29:30.893Z,18.38
2022-09-10T21:32:00.946Z,18.23
2022-09-10T21:34:30.717Z,18.13
2022-09-10T21:37:00.391Z,17.85
2022-09-10T21:39:30.337Z,17.86
2022-09-10T21:42:00.872Z,17.92
2022-09-10T21:44:33.356Z,17.78
2022-09-10T21:47:03.841Z,17.81
2022-09-10T21:49:34.373Z,17.80
2022-09-10T21:52:05.739Z,17.74
2022-09-10T21:54:37.690Z,17.55
2022-09-10T21:57:11.987Z,17.36
2022-09-10T21:59:42.723Z,17.54
2022-09-10T22:02:12.626Z,17.36
2022-09-10T22:04:42.931Z,17.24
2022-09-10T22:07:13.115Z,17.30
2022-09-10T22:09:43.415Z,16.99
2022-09-10T22:12:13.210Z,17.15
2022-09-10T22:14:43.834Z,17.20
2022-09-10T22:17:13.799Z,16.89
2022-09-10T22:19:46.989Z,16.83
2022-09-10T22:22:17.012Z,16.87
2022-09-10T22:24:47.408Z,16.75
2022-09-10T22:27:17.866Z,16.79
2022-09-10T22:29:48.346Z,16.80
2022-09-10T22:32:18.309Z,16.74
2022-09-10T22:34:49.644Z,16.61
2022-09-10T22:37:19.751Z,16.53
2022-09-10T22:39:49.760Z,16.75
2022-09-10T22:42:22.234Z,16.95
2022-09-10T22:44:52.230Z,16.87
2022-09-10T22:47:22.537Z,16.69
2022-09-10T22:49:52.588Z,16.50
2022-09-10T22:52:22.866Z,16.41
2022-09-10T22:54:53.585Z,16.32
2022-09-10T22:57:24.344Z,16.40
2022-09-10T22:59:55.146Z,16.29
2022-09-10T23:02:25.448Z,15.95
2022-09-10T23:04:55.418Z,16.02
2022-09-10T23:07:25.186Z,15.89
2022-09-10T23:09:55.532Z,15.79
2022-09-10T23:12:25.667Z,15.72
2022-09-10T23:14:57.295Z,15.75
2022-09-10T23:17:27.381Z,15.81
2022-09-10T23:19:57.180Z,15.88
2022-09-10T23:22:27.513Z,15.85
2022-09-10T23:24:57.687Z,15.68
2022-09-10T23:27:28.074Z,15.45
2022-09-10T23:29:58.581Z,15.48
2022-09-10T23:32:28.505Z,15.68
2022-09-10T23:34:58.924Z,15.94
2022-09-10T23:37:29.848Z,15.76
2022-09-10T23:40:00.255Z,15.77
2022-09-10T23:42:34.070Z,15.60
2022-09-10T23:45:04.445Z,15.68
2022-09-10T23:47:34.447Z,15.34
2022-09-10T23:50:05.366Z,15.39
2022-09-10T23:52:35.322Z,15.02
2022-09-10T23:55:05.356Z,15.32
2022-09-10T23:57:35.327Z,15.17
